WetterOnline ( http://www.wetteronline.de )

Wetter aktuell PLZ Bereich 25872

Aktuelles Wetter: Schleswig (48m)

6-stündlich | Neueste Meldungen
Ortszeit Temperatur Wetter
Fr, 15.02. 19:00 9.2° C leicht bewölkt
Fr, 15.02. 13:00 11.4° C leicht bewölkt
Fr, 15.02. 7:00 0.8° C leicht bewölkt
Fr, 15.02. 1:00 1.6° C wolkenlos
Do, 14.02. 19:00 5.4° C bedeckt
Do, 14.02. 13:00 7.2° C wolkig
Do, 14.02. 7:00 4.8° C bedeckt
Do, 14.02. 1:00 6.0° C bedeckt
Ortszeit Temperatur Wetter
Fr, 15.02. 20:30 7.9° C wolkenlos
Fr, 15.02. 20:20 7.9° C wolkenlos
Fr, 15.02. 20:10 7.8° C wolkenlos
Fr, 15.02. 20:00 8.3° C leicht bewölkt
Fr, 15.02. 19:50 8.3° C fast wolkenlos
Fr, 15.02. 19:40 8.3° C fast wolkenlos
Fr, 15.02. 19:30 8.6° C fast wolkenlos
Fr, 15.02. 19:00 9.2° C leicht bewölkt
Fr, 15.02. 18:30 9.7° C leicht bewölkt
Fr, 15.02. 18:00 10.3° C leicht bewölkt
Fr, 15.02. 17:30 11.2° C leicht bewölkt
Ortszeit Relative Feuchte Sichtweite
Fr, 15.02. 19:00 57% 40 km
Fr, 15.02. 13:00 45% 35 km
Fr, 15.02. 7:00 94% 10 km
Fr, 15.02. 1:00 99% 1.4 km
Do, 14.02. 19:00 91% 5.0 km
Do, 14.02. 13:00 80% 9 km
Do, 14.02. 7:00 97% 2.3 km
Do, 14.02. 1:00 91% 8 km
Ortszeit Relative Feuchte Sichtweite
Fr, 15.02. 20:30 62% 35 km
Fr, 15.02. 20:20 62% -
Fr, 15.02. 20:10 63% -
Fr, 15.02. 20:00 60% 35 km
Fr, 15.02. 19:50 60% -
Fr, 15.02. 19:40 61% -
Fr, 15.02. 19:30 60% 40 km
Fr, 15.02. 19:00 57% 40 km
Fr, 15.02. 18:30 53% 40 km
Fr, 15.02. 18:00 48% 40 km
Fr, 15.02. 17:30 43% 40 km
Ortszeit Niederschlagsmenge Niederschlagsart
Fr, 15.02. 19:00 0.0 l/m2 in 12 Std. -
Fr, 15.02. 13:00 0.0 l/m2 in 6 Std. -
Fr, 15.02. 7:00 0.0 l/m2 in 12 Std. -
Fr, 15.02. 1:00 0.0 l/m2 in 6 Std. -
Do, 14.02. 19:00 0.0 l/m2 in 12 Std. -
Do, 14.02. 13:00 0.0 l/m2 in 6 Std. -
Do, 14.02. 7:00 0.0 l/m2 in 12 Std. -
Do, 14.02. 1:00 0.0 l/m2 in 6 Std. -
Ortszeit Niederschlagsmenge Niederschlagsart
Fr, 15.02. 20:30 0.0 l/m2 in 1 Std. -
Fr, 15.02. 20:20 keine Meldung -
Fr, 15.02. 20:10 keine Meldung -
Fr, 15.02. 20:00 0.0 l/m2 in 1 Std. -
Fr, 15.02. 19:50 keine Meldung -
Fr, 15.02. 19:40 keine Meldung -
Fr, 15.02. 19:30 0.0 l/m2 in 1 Std. -
Fr, 15.02. 19:00 0.0 l/m2 in 1 Std. -
Fr, 15.02. 18:30 0.0 l/m2 in 1 Std. -
Fr, 15.02. 18:00 0.0 l/m2 in 1 Std. -
Fr, 15.02. 17:30 0.0 l/m2 in 1 Std. -
Ortszeit Stärke Spitze Richtung
km/h Bft. km/h Grad Sektor
Fr, 15.02. 19:00 13 3 26 190° S
Fr, 15.02. 13:00 13 3 19 200° S
Fr, 15.02. 7:00 9 2 15 220° SW
Fr, 15.02. 1:00 9 2 33 220° SW
Do, 14.02. 19:00 18 3 36 250° W
Do, 14.02. 13:00 18 3 36 220° SW
Do, 14.02. 7:00 13 3 35 240° SW
Do, 14.02. 1:00 19 3 41 250° W
Ortszeit Stärke Spitze Richtung
km/h Bft. km/h Grad Sektor
Fr, 15.02. 20:30 13 3 17 200° S
Fr, 15.02. 20:20 13 3 - 200° S
Fr, 15.02. 20:10 11 2 - 200° S
Fr, 15.02. 20:00 11 2 18 190° S
Fr, 15.02. 19:50 11 2 - 190° S
Fr, 15.02. 19:40 11 2 - 200° S
Fr, 15.02. 19:30 13 3 19 190° S
Fr, 15.02. 19:00 13 3 19 190° S
Fr, 15.02. 18:30 11 2 18 190° S
Fr, 15.02. 18:00 11 2 18 180° S
Fr, 15.02. 17:30 11 2 18 180° S
Ortszeit Untergrenze Bedeckung Gattung
total tief tief mittel hoch
Fr, 15.02. 19:00 12000 m 3/8 0/8 - - Ci
Fr, 15.02. 13:00 10500 m 5/8 5/8 - - Ci
Fr, 15.02. 7:00 9000 m 4/8 0/8 - - Ci
Fr, 15.02. 1:00 - 0/8 0/8 - - -
Do, 14.02. 19:00 210 m 8/8 8/8 St - -
Do, 14.02. 13:00 270 m 5/8 5/8 Sc - -
Do, 14.02. 7:00 90 m 8/8 8/8 St - -
Do, 14.02. 1:00 240 m 8/8 8/8 - - -
Ortszeit Bedeckungsgrad in Achtel und Wolkenuntergrenze
Fr, 15.02. 20:30 keine Wolken
Fr, 15.02. 20:20 keine Wolken
Fr, 15.02. 20:10 keine Wolken
Fr, 15.02. 20:00 2(12000m)
Fr, 15.02. 19:50 2(10500m)
Fr, 15.02. 19:40 2(10500m)
Fr, 15.02. 19:30 1(12000m)
Fr, 15.02. 19:00 3(12000m)
Fr, 15.02. 18:30 5(12000m)
Fr, 15.02. 18:00 6(12000m)
Fr, 15.02. 17:30 5(12000m)
Ortszeit Luftdruck NN (hPa) Tendenz (hPa in 3 Std.)
Fr, 15.02. 19:00 1028 - 1,4
Fr, 15.02. 13:00 1032 - 0,9
Fr, 15.02. 7:00 1033 - 0,6
Fr, 15.02. 1:00 1034 + 0,2
Do, 14.02. 19:00 1034 + 0,1
Do, 14.02. 13:00 1034 + 0,2
Do, 14.02. 7:00 1033 + 0,5
Do, 14.02. 1:00 1032 + 0,8
Ortszeit Luftdruck NN (hPa) Tendenz (hPa in 3 Std.)
Fr, 15.02. 20:30 1028 - 1,0
Fr, 15.02. 20:20 1028 keine Meldung
Fr, 15.02. 20:10 1028 keine Meldung
Fr, 15.02. 20:00 1028 - 1,0
Fr, 15.02. 19:50 1028 keine Meldung
Fr, 15.02. 19:40 1028 keine Meldung
Fr, 15.02. 19:30 1028 - 1,2
Fr, 15.02. 19:00 1028 - 1,4
Fr, 15.02. 18:30 1029 - 1,6
Fr, 15.02. 18:00 1029 - 1,9
Fr, 15.02. 17:30 1029 - 2,1
Ortszeit Schneehöhe (cm)
Fr, 15.02. 19:00 0
Fr, 15.02. 13:00 0
Fr, 15.02. 7:00 0
Fr, 15.02. 1:00 0
Do, 14.02. 19:00 0
Do, 14.02. 13:00 0
Do, 14.02. 7:00 0
Do, 14.02. 1:00 0
Ortszeit Schneehöhe (cm)
Fr, 15.02. 20:30 0
Fr, 15.02. 20:20 0
Fr, 15.02. 20:10 0
Fr, 15.02. 20:00 0
Fr, 15.02. 19:50 0
Fr, 15.02. 19:40 0
Fr, 15.02. 19:30 0
Fr, 15.02. 19:00 0
Fr, 15.02. 18:30 0
Fr, 15.02. 18:00 0
Fr, 15.02. 17:30 0
Link zu dieser Seite / Seite empfehlen

Das Wetter in ...